createdAt,value
2022-11-01T00:01:44.368Z,15.10
2022-11-01T00:04:16.075Z,15.10
2022-11-01T00:06:44.213Z,15.10
2022-11-01T00:09:13.458Z,15.00
2022-11-01T00:11:41.299Z,15.00
2022-11-01T00:14:29.866Z,15.00
2022-11-01T00:16:57.709Z,15.00
2022-11-01T00:19:25.562Z,15.00
2022-11-01T00:21:53.403Z,15.00
2022-11-01T00:24:22.659Z,15.10
2022-11-01T00:26:50.565Z,15.00
2022-11-01T00:29:19.456Z,15.10
2022-11-01T00:31:47.320Z,15.00
2022-11-01T00:34:16.089Z,15.10
2022-11-01T00:36:44.029Z,15.10
2022-11-01T00:39:14.392Z,15.10
2022-11-01T00:41:43.630Z,15.10
2022-11-01T00:44:11.536Z,15.10
2022-11-01T00:46:39.336Z,15.20
2022-11-01T00:49:15.431Z,15.20
2022-11-01T00:51:43.269Z,15.20
2022-11-01T00:54:11.046Z,15.20
2022-11-01T00:56:39.409Z,15.20
2022-11-01T00:59:08.929Z,15.20
2022-11-01T01:01:37.010Z,15.20
2022-11-01T01:04:07.582Z,15.20
2022-11-01T01:06:35.432Z,15.20
2022-11-01T01:09:03.278Z,15.20
2022-11-01T01:11:31.646Z,15.10
2022-11-01T01:13:59.486Z,15.20
2022-11-01T01:16:28.757Z,15.20
2022-11-01T01:18:56.733Z,15.20
2022-11-01T01:21:24.568Z,15.20
2022-11-01T01:23:54.637Z,15.20
2022-11-01T01:26:22.562Z,15.20
2022-11-01T01:28:56.151Z,15.20
2022-11-01T01:31:24.033Z,15.30
2022-11-01T01:33:53.307Z,15.30
2022-11-01T01:36:21.267Z,15.30
2022-11-01T01:38:49.117Z,15.30
2022-11-01T01:41:34.420Z,15.30
2022-11-01T01:44:05.478Z,15.30
2022-11-01T01:46:33.305Z,15.30
2022-11-01T01:49:03.271Z,15.30
2022-11-01T01:51:31.333Z,15.30
2022-11-01T01:54:01.164Z,15.30
2022-11-01T01:56:33.197Z,15.30
2022-11-01T01:59:04.683Z,15.30
2022-11-01T02:01:34.332Z,15.30
2022-11-01T02:04:04.964Z,15.30
2022-11-01T02:06:35.475Z,15.20
2022-11-01T02:09:06.136Z,15.30
2022-11-01T02:11:34.007Z,15.20
2022-11-01T02:14:02.719Z,15.20
2022-11-01T02:16:51.272Z,15.30
2022-11-01T02:20:03.951Z,15.30
2022-11-01T02:22:47.532Z,15.30
2022-11-01T02:25:41.182Z,15.20
2022-11-01T02:28:27.274Z,15.30
2022-11-01T02:31:09.163Z,15.30
2022-11-01T02:33:44.010Z,15.30
2022-11-01T02:36:17.815Z,15.30
2022-11-01T02:38:50.793Z,15.30
2022-11-01T02:41:25.586Z,15.30
2022-11-01T02:43:59.095Z,15.30
2022-11-01T02:46:47.076Z,15.40
2022-11-01T02:49:18.634Z,15.40
2022-11-01T02:51:48.058Z,15.50
2022-11-01T02:54:22.089Z,15.50
2022-11-01T02:56:52.605Z,15.50
2022-11-01T02:59:26.201Z,15.60
2022-11-01T03:02:01.514Z,15.60
2022-11-01T03:04:31.179Z,15.60
2022-11-01T03:07:03.517Z,15.60
2022-11-01T03:09:33.575Z,15.60
2022-11-01T03:12:05.361Z,15.70
2022-11-01T03:14:39.013Z,15.70
2022-11-01T03:17:12.417Z,15.70
2022-11-01T03:19:48.070Z,15.70
2022-11-01T03:22:25.187Z,15.70
2022-11-01T03:25:05.813Z,15.70
2022-11-01T03:27:38.610Z,15.70
2022-11-01T03:30:09.485Z,15.70
2022-11-01T03:32:41.837Z,15.70
2022-11-01T03:35:17.794Z,15.70
2022-11-01T03:37:47.786Z,15.70
2022-11-01T03:40:18.762Z,15.80
2022-11-01T03:42:49.455Z,15.80
2022-11-01T03:47:52.482Z,15.90
2022-11-01T03:50:23.202Z,15.90
2022-11-01T03:52:51.467Z,15.90
2022-11-01T03:55:21.255Z,15.90
2022-11-01T03:57:50.325Z,15.90
2022-11-01T04:00:20.966Z,15.90
2022-11-01T04:02:48.834Z,15.90
2022-11-01T04:05:17.550Z,15.90
2022-11-01T04:07:47.157Z,15.90
2022-11-01T04:10:16.099Z,15.90
2022-11-01T04:12:46.120Z,15.80
2022-11-01T04:15:32.135Z,15.80
2022-11-01T04:18:25.479Z,15.70
2022-11-01T04:20:53.821Z,15.60
2022-11-01T04:23:23.239Z,15.60
2022-11-01T04:25:51.303Z,15.60
2022-11-01T04:28:19.198Z,15.50
2022-11-01T04:30:47.069Z,15.50
2022-11-01T04:33:14.935Z,15.50
2022-11-01T04:35:42.782Z,15.40
2022-11-01T04:38:11.062Z,15.40
2022-11-01T04:40:40.784Z,15.30
2022-11-01T04:43:08.699Z,15.30
2022-11-01T04:45:36.560Z,15.20
2022-11-01T04:48:05.721Z,15.20
2022-11-01T04:50:35.569Z,15.20
2022-11-01T04:53:04.201Z,15.10
2022-11-01T04:55:32.373Z,15.10
2022-11-01T04:58:01.563Z,15.10
2022-11-01T05:00:29.548Z,15.00
2022-11-01T05:03:03.224Z,15.00
2022-11-01T05:05:31.538Z,15.00
2022-11-01T05:08:03.371Z,15.00
2022-11-01T05:10:36.632Z,14.90
2022-11-01T05:13:06.608Z,14.90
2022-11-01T05:15:40.171Z,14.90
2022-11-01T05:18:16.017Z,14.80
2022-11-01T05:20:43.846Z,14.80
2022-11-01T05:23:11.704Z,14.80
2022-11-01T05:25:39.525Z,14.80
2022-11-01T05:28:14.415Z,14.70
2022-11-01T05:30:43.273Z,14.70
2022-11-01T05:33:13.315Z,14.60
2022-11-01T05:35:41.151Z,14.60
2022-11-01T05:38:09.037Z,14.60
2022-11-01T05:40:36.995Z,14.50
2022-11-01T05:43:05.171Z,14.50
2022-11-01T05:45:34.524Z,14.40
2022-11-01T05:48:06.284Z,14.40
2022-11-01T05:50:34.207Z,14.40
2022-11-01T05:53:06.849Z,14.40
2022-11-01T05:55:39.391Z,14.30
2022-11-01T05:58:07.880Z,14.30
2022-11-01T06:00:37.399Z,14.20
2022-11-01T06:03:06.587Z,14.20
2022-11-01T06:05:35.133Z,14.20
2022-11-01T06:08:04.171Z,14.20
2022-11-01T06:10:32.194Z,14.20
2022-11-01T06:13:00.842Z,14.20
2022-11-01T06:15:28.969Z,14.10
2022-11-01T06:17:58.853Z,14.10
2022-11-01T06:20:28.342Z,14.10
2022-11-01T06:22:56.351Z,14.10
2022-11-01T06:25:24.186Z,14.10
2022-11-01T06:27:52.074Z,14.10
2022-11-01T06:30:19.915Z,14.10
2022-11-01T06:32:47.820Z,14.10
2022-11-01T06:35:17.256Z,14.10
2022-11-01T06:37:45.104Z,14.10
2022-11-01T06:40:14.091Z,14.10
2022-11-01T06:42:46.390Z,14.10
2022-11-01T06:45:14.665Z,14.10
2022-11-01T06:47:47.855Z,14.00
2022-11-01T06:50:17.222Z,14.10
2022-11-01T06:52:45.166Z,14.10
2022-11-01T06:55:13.144Z,14.20
2022-11-01T06:57:41.133Z,14.20
2022-11-01T07:00:10.284Z,14.20
2022-11-01T07:02:38.460Z,14.10
2022-11-01T07:05:07.733Z,14.10
2022-11-01T07:07:37.152Z,14.10
2022-11-01T07:10:08.620Z,14.10
2022-11-01T07:12:36.494Z,14.10
2022-11-01T07:15:04.779Z,14.10
2022-11-01T07:17:32.826Z,14.10
2022-11-01T07:20:00.794Z,14.10
2022-11-01T07:22:29.167Z,14.10
2022-11-01T07:24:58.629Z,14.10
2022-11-01T07:27:26.812Z,14.20
2022-11-01T07:30:26.938Z,14.20
2022-11-01T07:32:57.150Z,14.20
2022-11-01T07:35:25.243Z,14.20
2022-11-01T07:37:53.577Z,14.20
2022-11-01T07:40:27.724Z,14.20
2022-11-01T07:42:58.476Z,14.20
2022-11-01T07:45:27.280Z,14.20
2022-11-01T07:47:59.202Z,14.30
2022-11-01T07:50:45.607Z,14.30
2022-11-01T07:53:17.704Z,14.30
2022-11-01T07:55:50.984Z,14.30
2022-11-01T07:58:18.997Z,14.30
2022-11-01T08:00:47.399Z,14.30
2022-11-01T08:03:19.203Z,14.30
2022-11-01T08:05:48.529Z,14.20
2022-11-01T08:08:17.828Z,14.30
2022-11-01T08:10:47.720Z,14.20
2022-11-01T08:13:18.360Z,14.30
2022-11-01T08:15:47.172Z,14.20
2022-11-01T08:18:18.000Z,14.30
2022-11-01T08:20:46.077Z,14.30
2022-11-01T08:23:15.476Z,14.30
2022-11-01T08:25:46.962Z,14.20
2022-11-01T08:28:17.216Z,14.20
2022-11-01T08:30:47.689Z,14.30
2022-11-01T08:33:16.450Z,14.30
2022-11-01T08:35:50.681Z,14.30
2022-11-01T08:38:23.376Z,14.30
2022-11-01T08:40:52.849Z,14.30
2022-11-01T08:43:21.611Z,14.20
2022-11-01T08:45:50.454Z,14.20
2022-11-01T08:48:18.573Z,14.20
2022-11-01T08:50:46.732Z,14.20
2022-11-01T08:53:15.710Z,14.20
2022-11-01T08:55:44.050Z,14.30
2022-11-01T08:58:13.435Z,14.30
2022-11-01T09:00:42.489Z,14.30
2022-11-01T09:03:10.419Z,14.30
2022-11-01T09:05:41.400Z,14.30
2022-11-01T09:08:09.655Z,14.30
2022-11-01T09:10:37.684Z,14.30
2022-11-01T09:13:06.241Z,14.30
2022-11-01T09:15:35.916Z,14.40
2022-11-01T09:18:07.110Z,14.40
2022-11-01T09:20:37.750Z,14.30
2022-11-01T09:23:05.926Z,14.30
2022-11-01T09:25:34.213Z,14.30
2022-11-01T09:28:02.068Z,14.30
2022-11-01T09:30:30.297Z,14.30
2022-11-01T09:32:59.587Z,14.30
2022-11-01T09:35:29.959Z,14.30
2022-11-01T09:38:05.248Z,14.30
2022-11-01T09:40:43.913Z,14.30
2022-11-01T09:43:30.815Z,14.40
2022-11-01T09:46:00.346Z,14.40
2022-11-01T09:48:35.138Z,14.40
2022-11-01T09:51:04.949Z,14.40
2022-11-01T09:53:33.182Z,14.50
2022-11-01T09:56:12.089Z,14.40
2022-11-01T09:58:52.438Z,14.40
2022-11-01T10:01:41.406Z,14.40
2022-11-01T10:04:37.872Z,14.50
2022-11-01T10:07:14.056Z,14.50
2022-11-01T10:09:48.545Z,14.50
2022-11-01T10:12:37.195Z,14.50
2022-11-01T10:15:23.764Z,14.60
2022-11-01T10:17:57.062Z,14.60
2022-11-01T10:20:35.726Z,14.60
2022-11-01T10:23:16.688Z,14.70
2022-11-01T10:25:54.285Z,14.80
2022-11-01T10:28:35.129Z,14.80
2022-11-01T10:31:10.984Z,14.80
2022-11-01T10:33:42.989Z,14.80
2022-11-01T10:36:16.959Z,14.90
2022-11-01T10:39:36.970Z,14.90
2022-11-01T10:41:43.188Z,14.90
2022-11-01T10:44:16.078Z,15.00
2022-11-01T10:46:46.973Z,15.00
2022-11-01T10:49:35.074Z,15.10
2022-11-01T10:52:19.871Z,15.10
2022-11-01T10:54:50.024Z,15.20
2022-11-01T10:57:27.708Z,15.20
2022-11-01T10:59:58.097Z,15.30
2022-11-01T11:02:29.872Z,15.30
2022-11-01T11:04:58.918Z,15.30
2022-11-01T11:07:31.090Z,15.40
2022-11-01T11:12:31.110Z,15.30
2022-11-01T11:15:10.663Z,15.40
2022-11-01T11:17:43.491Z,15.40
2022-11-01T11:20:13.996Z,15.40
2022-11-01T11:22:44.395Z,15.50
2022-11-01T11:25:16.879Z,15.50
2022-11-01T11:27:47.400Z,15.50
2022-11-01T11:30:28.069Z,15.60
2022-11-01T11:32:58.506Z,15.70
2022-11-01T11:35:28.393Z,15.70
2022-11-01T11:37:59.795Z,15.70
2022-11-01T11:40:29.239Z,15.70
2022-11-01T11:43:22.726Z,15.70
2022-11-01T11:46:04.738Z,15.80
2022-11-01T11:48:32.738Z,15.80
2022-11-01T11:51:03.204Z,15.80
2022-11-01T11:53:33.361Z,15.80
2022-11-01T11:56:06.553Z,15.90
2022-11-01T11:58:38.279Z,15.90
2022-11-01T12:01:12.093Z,15.90
2022-11-01T12:03:47.017Z,15.90
2022-11-01T12:06:20.303Z,15.90
2022-11-01T12:08:52.005Z,16.00
2022-11-01T12:11:20.915Z,16.00
2022-11-01T12:14:02.659Z,16.10
2022-11-01T12:16:31.204Z,16.10
2022-11-01T12:19:00.191Z,16.10
2022-11-01T12:21:30.264Z,16.20
2022-11-01T12:24:03.719Z,16.20
2022-11-01T12:29:30.498Z,16.20
2022-11-01T12:32:21.575Z,16.20
2022-11-01T12:34:51.548Z,16.20
2022-11-01T12:37:22.273Z,16.30
2022-11-01T12:39:57.078Z,16.30
2022-11-01T12:42:29.841Z,16.30
2022-11-01T12:45:02.816Z,16.30
2022-11-01T12:47:37.584Z,16.30
2022-11-01T12:50:16.507Z,16.30
2022-11-01T12:52:49.452Z,16.40
2022-11-01T12:55:25.088Z,16.40
2022-11-01T12:58:16.018Z,16.40
2022-11-01T13:00:53.387Z,16.40
2022-11-01T13:03:34.803Z,16.40
2022-11-01T13:06:14.081Z,16.40
2022-11-01T13:09:24.370Z,16.50
2022-11-01T13:12:34.278Z,16.50
2022-11-01T13:15:35.644Z,16.40
2022-11-01T13:18:11.260Z,16.40
2022-11-01T13:20:51.609Z,16.40
2022-11-01T13:23:29.736Z,16.40
2022-11-01T13:26:20.070Z,16.40
2022-11-01T13:32:27.237Z,16.30
2022-11-01T13:35:10.502Z,16.30
2022-11-01T13:37:55.030Z,16.20
2022-11-01T13:43:17.771Z,16.20
2022-11-01T13:46:26.242Z,16.30
2022-11-01T13:49:32.557Z,16.30
2022-11-01T13:52:24.092Z,16.30
2022-11-01T13:55:00.732Z,16.30
2022-11-01T13:57:29.164Z,16.30
2022-11-01T14:00:00.739Z,16.30
2022-11-01T14:02:57.103Z,16.30
2022-11-01T14:05:49.087Z,16.30
2022-11-01T14:08:37.055Z,16.30
2022-11-01T14:11:10.938Z,16.30
2022-11-01T14:13:45.548Z,16.30
2022-11-01T14:16:23.956Z,16.30
2022-11-01T14:19:22.641Z,16.30
2022-11-01T14:22:14.355Z,16.40
2022-11-01T14:24:59.292Z,16.40
2022-11-01T14:27:37.926Z,16.40
2022-11-01T14:30:14.390Z,16.50
2022-11-01T14:32:49.619Z,16.50
2022-11-01T14:35:23.511Z,16.50
2022-11-01T14:37:56.425Z,16.40
2022-11-01T14:40:41.229Z,16.40
2022-11-01T14:43:20.342Z,16.30
2022-11-01T14:48:44.349Z,16.30
2022-11-01T14:51:39.468Z,16.20
2022-11-01T14:54:20.985Z,16.20
2022-11-01T14:56:50.875Z,16.20
2022-11-01T14:59:26.524Z,16.20
2022-11-01T15:02:03.361Z,16.20
2022-11-01T15:04:46.143Z,16.10
2022-11-01T15:10:28.861Z,16.10
2022-11-01T15:13:08.761Z,16.10
2022-11-01T15:18:22.438Z,16.10
2022-11-01T15:20:57.730Z,16.10
2022-11-01T15:23:36.567Z,16.10
2022-11-01T15:26:13.982Z,16.10
2022-11-01T15:28:50.461Z,16.00
2022-11-01T15:31:22.919Z,16.00
2022-11-01T15:33:59.433Z,15.90
2022-11-01T15:36:37.489Z,15.90
2022-11-01T15:39:18.186Z,15.90
2022-11-01T15:41:48.148Z,15.80
2022-11-01T15:44:33.114Z,15.80
2022-11-01T15:47:04.497Z,15.80
2022-11-01T15:49:36.100Z,15.80
2022-11-01T15:52:07.276Z,15.70
2022-11-01T15:54:47.566Z,15.70
2022-11-01T15:57:26.122Z,15.60
2022-11-01T16:00:00.357Z,15.60
2022-11-01T16:05:33.253Z,15.60
2022-11-01T16:08:03.203Z,15.50
2022-11-01T16:10:31.854Z,15.50
2022-11-01T16:13:04.869Z,15.50
2022-11-01T16:15:34.172Z,15.50
2022-11-01T16:18:19.101Z,15.40
2022-11-01T16:26:53.728Z,15.40
2022-11-01T16:30:15.868Z,15.40
2022-11-01T16:32:48.651Z,15.40
2022-11-01T16:35:37.295Z,15.30
2022-11-01T16:38:24.490Z,15.30
2022-11-01T16:41:15.100Z,15.30
2022-11-01T16:43:43.531Z,15.20
2022-11-01T16:46:16.057Z,15.30
2022-11-01T16:48:53.223Z,15.30
2022-11-01T16:51:25.154Z,15.30
2022-11-01T16:53:53.943Z,15.30
2022-11-01T16:56:42.290Z,15.30
2022-11-01T16:59:24.580Z,15.30
2022-11-01T17:02:39.915Z,15.30
2022-11-01T17:05:23.598Z,15.20
2022-11-01T17:07:54.226Z,15.20
2022-11-01T17:10:26.478Z,15.20
2022-11-01T17:12:58.216Z,15.20
2022-11-01T17:15:29.549Z,15.20
2022-11-01T17:17:57.661Z,15.20
2022-11-01T17:20:32.401Z,15.20
2022-11-01T17:23:09.670Z,15.20
2022-11-01T17:25:45.400Z,15.20
2022-11-01T17:28:13.460Z,15.20
2022-11-01T17:30:41.945Z,15.20
2022-11-01T17:33:09.877Z,15.20
2022-11-01T17:35:44.262Z,15.30
2022-11-01T17:38:16.111Z,15.30
2022-11-01T17:40:45.625Z,15.30
2022-11-01T17:43:18.846Z,15.30
2022-11-01T17:45:48.591Z,15.30
2022-11-01T17:48:17.448Z,15.30
2022-11-01T17:50:52.084Z,15.30
2022-11-01T17:53:24.892Z,15.30
2022-11-01T17:55:58.434Z,15.30
2022-11-01T17:58:29.284Z,15.40
2022-11-01T18:04:22.118Z,15.40
2022-11-01T18:07:01.300Z,15.30
2022-11-01T18:09:39.693Z,15.30
2022-11-01T18:12:20.043Z,15.30
2022-11-01T18:14:56.584Z,15.30
2022-11-01T18:17:53.901Z,15.30
2022-11-01T18:20:54.346Z,15.30
2022-11-01T18:23:33.148Z,15.30
2022-11-01T18:26:08.447Z,15.30
2022-11-01T18:28:51.332Z,15.20
2022-11-01T18:31:24.263Z,15.30
2022-11-01T18:34:04.836Z,15.30
2022-11-01T18:36:50.577Z,15.30
2022-11-01T18:39:33.150Z,15.30
2022-11-01T18:42:03.337Z,15.30
2022-11-01T18:44:32.081Z,15.30
2022-11-01T18:47:34.614Z,15.30
2022-11-01T18:50:19.318Z,15.30
2022-11-01T18:52:47.911Z,15.30
2022-11-01T18:55:17.285Z,15.30
2022-11-01T18:57:45.162Z,15.30
2022-11-01T19:00:22.240Z,15.30
2022-11-01T19:02:50.132Z,15.20
2022-11-01T19:05:29.315Z,15.20
2022-11-01T19:08:10.991Z,15.20
2022-11-01T19:10:51.285Z,15.20
2022-11-01T19:13:36.425Z,15.20
2022-11-01T19:16:09.515Z,15.20
2022-11-01T19:18:42.344Z,15.10
2022-11-01T19:21:25.826Z,15.10
2022-11-01T19:23:57.831Z,15.10
2022-11-01T19:26:46.045Z,15.10
2022-11-01T19:29:18.723Z,15.10
2022-11-01T19:31:52.650Z,15.10
2022-11-01T19:34:24.133Z,15.10
2022-11-01T19:36:52.890Z,15.10
2022-11-01T19:39:24.339Z,15.10
2022-11-01T19:41:56.583Z,15.10
2022-11-01T19:44:28.017Z,15.10
2022-11-01T19:47:06.669Z,15.10
2022-11-01T19:49:40.499Z,15.10
2022-11-01T19:52:27.190Z,15.10
2022-11-01T19:54:55.676Z,15.10
2022-11-01T19:57:31.623Z,15.10
2022-11-01T20:00:15.838Z,15.10
2022-11-01T20:02:43.801Z,15.10
2022-11-01T20:05:27.363Z,15.10
2022-11-01T20:08:03.497Z,15.10
2022-11-01T20:10:31.671Z,15.10
2022-11-01T20:13:04.759Z,15.10
2022-11-01T20:15:33.362Z,15.10
2022-11-01T20:18:03.689Z,15.10
2022-11-01T20:20:32.736Z,15.00
2022-11-01T20:23:24.603Z,15.00
2022-11-01T20:25:48.956Z,15.00
2022-11-01T20:28:18.191Z,15.00
2022-11-01T20:30:46.065Z,14.90
2022-11-01T20:33:14.258Z,14.90
2022-11-01T20:35:42.114Z,14.90
2022-11-01T20:38:10.133Z,14.90
2022-11-01T20:40:38.062Z,14.90
2022-11-01T20:43:06.436Z,14.90
2022-11-01T20:45:35.922Z,14.90
2022-11-01T20:48:07.373Z,14.90
2022-11-01T20:50:35.495Z,14.90
2022-11-01T20:53:05.117Z,14.90
2022-11-01T20:55:33.786Z,14.90
2022-11-01T20:58:01.879Z,14.90
2022-11-01T21:00:30.089Z,14.80
2022-11-01T21:02:59.531Z,14.80
2022-11-01T21:05:29.263Z,14.80
2022-11-01T21:08:01.358Z,14.80
2022-11-01T21:10:34.347Z,14.70
2022-11-01T21:13:04.076Z,14.70
2022-11-01T21:15:37.857Z,14.70
2022-11-01T21:18:45.792Z,14.70
2022-11-01T21:21:35.448Z,14.70
2022-11-01T21:24:26.749Z,14.60
2022-11-01T21:27:25.324Z,14.60
2022-11-01T21:29:55.659Z,14.60
2022-11-01T21:32:29.715Z,14.60
2022-11-01T21:34:59.759Z,14.60
2022-11-01T21:37:30.158Z,14.50
2022-11-01T21:40:05.184Z,14.50
2022-11-01T21:42:37.325Z,14.40
2022-11-01T21:45:29.639Z,14.40
2022-11-01T21:48:00.758Z,14.30
2022-11-01T21:50:30.105Z,14.30
2022-11-01T21:52:57.972Z,14.20
2022-11-01T21:55:26.104Z,14.20
2022-11-01T21:57:53.935Z,14.20
2022-11-01T22:00:22.064Z,14.20
2022-11-01T22:02:55.175Z,14.20
2022-11-01T22:05:35.277Z,14.20
2022-11-01T22:08:12.672Z,14.20
2022-11-01T22:10:40.624Z,14.10
2022-11-01T22:13:08.753Z,14.10
2022-11-01T22:15:36.804Z,14.10
2022-11-01T22:18:04.980Z,14.10
2022-11-01T22:20:32.925Z,14.10
2022-11-01T22:23:01.061Z,14.10
2022-11-01T22:25:30.472Z,14.00
2022-11-01T22:27:58.358Z,13.90
2022-11-01T22:30:27.459Z,13.80
2022-11-01T22:32:55.332Z,13.80
2022-11-01T22:35:28.220Z,13.60
2022-11-01T22:37:56.871Z,13.50
2022-11-01T22:40:24.858Z,13.30
2022-11-01T22:42:58.117Z,13.30
2022-11-01T22:45:25.995Z,13.20
2022-11-01T22:47:54.177Z,13.20
2022-11-01T22:50:27.283Z,13.10
2022-11-01T22:52:58.168Z,13.20
2022-11-01T22:55:31.903Z,13.20
2022-11-01T22:58:33.407Z,13.20
2022-11-01T23:01:02.077Z,13.10
2022-11-01T23:03:40.716Z,13.10
2022-11-01T23:06:44.978Z,13.00
2022-11-01T23:09:20.594Z,12.90
2022-11-01T23:12:13.447Z,12.80
2022-11-01T23:14:47.429Z,12.70
2022-11-01T23:17:29.189Z,12.80
2022-11-01T23:20:08.961Z,12.80
2022-11-01T23:22:37.518Z,12.70
2022-11-01T23:25:07.143Z,12.60
2022-11-01T23:27:36.076Z,12.60
2022-11-01T23:30:08.598Z,12.60
2022-11-01T23:32:36.478Z,12.60
2022-11-01T23:35:13.699Z,12.60
2022-11-01T23:37:42.732Z,12.60
2022-11-01T23:40:16.508Z,12.60
2022-11-01T23:42:44.389Z,12.60
2022-11-01T23:45:28.690Z,12.50
2022-11-01T23:47:56.881Z,12.50
2022-11-01T23:50:30.233Z,12.50
2022-11-01T23:53:00.368Z,12.40
2022-11-01T23:55:31.769Z,12.40
2022-11-01T23:58:02.905Z,12.30
